sensor_id;sensor_type;location;lat;lon;timestamp;pressure;altitude;pressure_sealevel;temperature;humidity
44131;BME280;29792;48.726;9.248;2023-02-28T00:00:20;97515.91;;;-1.43;66.86
44131;BME280;29792;48.726;9.248;2023-02-28T00:02:46;97508.38;;;-1.45;67.18
44131;BME280;29792;48.726;9.248;2023-02-28T00:05:14;97514.25;;;-1.44;67.85
44131;BME280;29792;48.726;9.248;2023-02-28T00:07:40;97507.66;;;-1.48;67.96
44131;BME280;29792;48.726;9.248;2023-02-28T00:10:08;97508.50;;;-1.48;67.50
44131;BME280;29792;48.726;9.248;2023-02-28T00:12:34;97510.16;;;-1.48;68.11
44131;BME280;29792;48.726;9.248;2023-02-28T00:15:00;97505.16;;;-1.48;68.18
44131;BME280;29792;48.726;9.248;2023-02-28T00:17:25;97511.00;;;-1.48;68.25
44131;BME280;29792;48.726;9.248;2023-02-28T00:19:51;97510.16;;;-1.48;68.47
44131;BME280;29792;48.726;9.248;2023-02-28T00:22:18;97509.38;;;-1.50;68.57
44131;BME280;29792;48.726;9.248;2023-02-28T00:24:43;97509.44;;;-1.54;68.57
44131;BME280;29792;48.726;9.248;2023-02-28T00:27:10;97506.13;;;-1.54;68.97
44131;BME280;29792;48.726;9.248;2023-02-28T00:29:36;97502.00;;;-1.57;69.15
44131;BME280;29792;48.726;9.248;2023-02-28T00:32:01;97507.91;;;-1.59;69.07
44131;BME280;29792;48.726;9.248;2023-02-28T00:34:27;97503.75;;;-1.60;69.19
44131;BME280;29792;48.726;9.248;2023-02-28T00:36:52;97503.78;;;-1.62;68.86
44131;BME280;29792;48.726;9.248;2023-02-28T00:39:17;97507.16;;;-1.63;69.06
44131;BME280;29792;48.726;9.248;2023-02-28T00:41:42;97507.22;;;-1.64;69.41
44131;BME280;29792;48.726;9.248;2023-02-28T00:44:08;97506.41;;;-1.66;69.90
44131;BME280;29792;48.726;9.248;2023-02-28T00:46:33;97508.91;;;-1.66;69.98
44131;BME280;29792;48.726;9.248;2023-02-28T00:48:59;97505.63;;;-1.70;69.75
44131;BME280;29792;48.726;9.248;2023-02-28T00:51:24;97506.47;;;-1.69;69.98
44131;BME280;29792;48.726;9.248;2023-02-28T00:53:49;97503.97;;;-1.69;70.29
44131;BME280;29792;48.726;9.248;2023-02-28T00:56:15;97503.97;;;-1.69;70.74
44131;BME280;29792;48.726;9.248;2023-02-28T00:58:40;97508.16;;;-1.70;70.81
44131;BME280;29792;48.726;9.248;2023-02-28T01:01:06;97503.97;;;-1.69;71.16
44131;BME280;29792;48.726;9.248;2023-02-28T01:03:31;97498.09;;;-1.70;70.43
44131;BME280;29792;48.726;9.248;2023-02-28T01:05:56;97501.53;;;-1.72;71.11
44131;BME280;29792;48.726;9.248;2023-02-28T01:08:22;97508.22;;;-1.71;71.33
44131;BME280;29792;48.726;9.248;2023-02-28T01:10:47;97503.94;;;-1.68;71.29
44131;BME280;29792;48.726;9.248;2023-02-28T01:13:13;97503.94;;;-1.68;71.53
44131;BME280;29792;48.726;9.248;2023-02-28T01:15:44;97500.69;;;-1.71;72.30
44131;BME280;29792;48.726;9.248;2023-02-28T01:18:10;97494.03;;;-1.74;71.90
44131;BME280;29792;48.726;9.248;2023-02-28T01:20:37;97494.03;;;-1.74;72.07
44131;BME280;29792;48.726;9.248;2023-02-28T01:23:02;97496.56;;;-1.75;72.72
44131;BME280;29792;48.726;9.248;2023-02-28T01:25:27;97496.56;;;-1.74;72.86
44131;BME280;29792;48.726;9.248;2023-02-28T01:27:53;97496.56;;;-1.75;73.10
44131;BME280;29792;48.726;9.248;2023-02-28T01:30:18;97490.66;;;-1.73;73.31
44131;BME280;29792;48.726;9.248;2023-02-28T01:32:44;97494.00;;;-1.72;72.80
44131;BME280;29792;48.726;9.248;2023-02-28T01:35:09;97494.03;;;-1.74;72.89
44131;BME280;29792;48.726;9.248;2023-02-28T01:37:34;97491.53;;;-1.74;73.62
44131;BME280;29792;48.726;9.248;2023-02-28T01:39:59;97493.25;;;-1.76;73.61
44131;BME280;29792;48.726;9.248;2023-02-28T01:42:25;97497.41;;;-1.75;73.97
44131;BME280;29792;48.726;9.248;2023-02-28T01:45:18;97494.94;;;-1.76;74.16
44131;BME280;29792;48.726;9.248;2023-02-28T01:47:44;97490.72;;;-1.76;73.87
44131;BME280;29792;48.726;9.248;2023-02-28T01:50:18;97493.25;;;-1.76;74.24
44131;BME280;29792;48.726;9.248;2023-02-28T01:52:45;97489.13;;;-1.78;74.37
44131;BME280;29792;48.726;9.248;2023-02-28T01:55:12;97480.69;;;-1.76;74.60
44131;BME280;29792;48.726;9.248;2023-02-28T01:57:42;97484.91;;;-1.78;75.40
44131;BME280;29792;48.726;9.248;2023-02-28T02:00:11;97479.13;;;-1.80;75.07
44131;BME280;29792;48.726;9.248;2023-02-28T02:02:38;97478.28;;;-1.79;75.26
44131;BME280;29792;48.726;9.248;2023-02-28T02:05:29;97472.44;;;-1.79;75.02
44131;BME280;29792;48.726;9.248;2023-02-28T02:08:01;97479.13;;;-1.80;76.23
44131;BME280;29792;48.726;9.248;2023-02-28T02:10:40;97470.78;;;-1.80;76.17
44131;BME280;29792;48.726;9.248;2023-02-28T02:13:45;97473.28;;;-1.80;76.13
44131;BME280;29792;48.726;9.248;2023-02-28T02:16:22;97463.34;;;-1.85;76.55
44131;BME280;29792;48.726;9.248;2023-02-28T02:18:54;97464.19;;;-1.86;77.09
44131;BME280;29792;48.726;9.248;2023-02-28T02:29:47;97463.34;;;-1.85;77.11
44131;BME280;29792;48.726;9.248;2023-02-28T02:35:27;97452.44;;;-1.84;77.35
44131;BME280;29792;48.726;9.248;2023-02-28T02:38:21;97448.25;;;-1.83;77.52
44131;BME280;29792;48.726;9.248;2023-02-28T02:46:10;97458.94;;;-1.77;78.42
44131;BME280;29792;48.726;9.248;2023-02-28T02:48:38;97454.72;;;-1.75;78.30
44131;BME280;29792;48.726;9.248;2023-02-28T02:51:14;97452.25;;;-1.76;78.12
44131;BME280;29792;48.726;9.248;2023-02-28T02:53:44;97451.34;;;-1.74;78.54
44131;BME280;29792;48.726;9.248;2023-02-28T02:56:12;97450.50;;;-1.73;77.91
44131;BME280;29792;48.726;9.248;2023-02-28T02:58:41;97447.19;;;-1.75;78.77
44131;BME280;29792;48.726;9.248;2023-02-28T03:01:11;97460.53;;;-1.73;78.72
44131;BME280;29792;48.726;9.248;2023-02-28T03:03:37;97452.16;;;-1.72;78.58
44131;BME280;29792;48.726;9.248;2023-02-28T03:06:03;97460.53;;;-1.73;78.74
44131;BME280;29792;48.726;9.248;2023-02-28T03:08:34;97454.69;;;-1.73;79.04
44131;BME280;29792;48.726;9.248;2023-02-28T03:11:03;97457.16;;;-1.72;79.24
44131;BME280;29792;48.726;9.248;2023-02-28T03:17:01;97461.34;;;-1.71;79.79
44131;BME280;29792;48.726;9.248;2023-02-28T03:19:41;97459.59;;;-1.69;79.38
44131;BME280;29792;48.726;9.248;2023-02-28T03:25:07;97462.84;;;-1.64;80.04
44131;BME280;29792;48.726;9.248;2023-02-28T03:27:39;97460.28;;;-1.62;79.54
44131;BME280;29792;48.726;9.248;2023-02-28T03:30:26;97458.53;;;-1.60;79.58
44131;BME280;29792;48.726;9.248;2023-02-28T03:33:05;97463.50;;;-1.57;79.61
44131;BME280;29792;48.726;9.248;2023-02-28T03:35:38;97456.81;;;-1.58;79.65
44131;BME280;29792;48.726;9.248;2023-02-28T03:38:12;97452.63;;;-1.58;80.34
44131;BME280;29792;48.726;9.248;2023-02-28T03:40:44;97458.34;;;-1.52;80.31
44131;BME280;29792;48.726;9.248;2023-02-28T03:43:18;97456.69;;;-1.54;80.27
44131;BME280;29792;48.726;9.248;2023-02-28T03:45:45;97453.25;;;-1.49;79.56
44131;BME280;29792;48.726;9.248;2023-02-28T03:48:25;97454.91;;;-1.48;80.48
44131;BME280;29792;48.726;9.248;2023-02-28T03:50:55;97458.97;;;-1.44;79.80
44131;BME280;29792;48.726;9.248;2023-02-28T03:53:32;97452.31;;;-1.45;80.21
44131;BME280;29792;48.726;9.248;2023-02-28T03:56:08;97458.09;;;-1.42;80.82
44131;BME280;29792;48.726;9.248;2023-02-28T03:58:39;97458.88;;;-1.40;81.10
44131;BME280;29792;48.726;9.248;2023-02-28T04:01:13;97458.88;;;-1.40;81.19
44131;BME280;29792;48.726;9.248;2023-02-28T04:03:40;97460.56;;;-1.40;80.47
44131;BME280;29792;48.726;9.248;2023-02-28T04:06:07;97454.72;;;-1.41;80.23
44131;BME280;29792;48.726;9.248;2023-02-28T04:08:33;97465.63;;;-1.42;80.91
44131;BME280;29792;48.726;9.248;2023-02-28T04:11:06;97461.38;;;-1.38;81.22
44131;BME280;29792;48.726;9.248;2023-02-28T04:13:38;97456.16;;;-1.32;81.03
44131;BME280;29792;48.726;9.248;2023-02-28T04:16:07;97472.97;;;-1.34;80.35
44131;BME280;29792;48.726;9.248;2023-02-28T04:18:40;97464.50;;;-1.30;80.83
44131;BME280;29792;48.726;9.248;2023-02-28T04:21:06;97458.56;;;-1.28;80.77
44131;BME280;29792;48.726;9.248;2023-02-28T04:23:31;97461.03;;;-1.26;80.83
44131;BME280;29792;48.726;9.248;2023-02-28T04:25:57;97462.69;;;-1.25;80.29
44131;BME280;29792;48.726;9.248;2023-02-28T04:28:22;97464.34;;;-1.24;80.37
44131;BME280;29792;48.726;9.248;2023-02-28T04:30:47;97460.94;;;-1.22;80.37
44131;BME280;29792;48.726;9.248;2023-02-28T04:33:12;97470.09;;;-1.21;80.35
44131;BME280;29792;48.726;9.248;2023-02-28T04:35:41;97462.53;;;-1.21;80.84
44131;BME280;29792;48.726;9.248;2023-02-28T04:38:06;97458.41;;;-1.22;80.61
44131;BME280;29792;48.726;9.248;2023-02-28T04:40:31;97455.91;;;-1.22;80.31
44131;BME280;29792;48.726;9.248;2023-02-28T04:42:56;97454.97;;;-1.19;80.58
44131;BME280;29792;48.726;9.248;2023-02-28T04:45:22;97463.31;;;-1.17;80.96
44131;BME280;29792;48.726;9.248;2023-02-28T04:47:47;97459.91;;;-1.14;80.90
44131;BME280;29792;48.726;9.248;2023-02-28T04:50:12;97455.63;;;-1.12;80.83
44131;BME280;29792;48.726;9.248;2023-02-28T04:52:37;97459.91;;;-1.14;81.13
44131;BME280;29792;48.726;9.248;2023-02-28T04:55:03;97468.25;;;-1.14;80.92
44131;BME280;29792;48.726;9.248;2023-02-28T04:57:28;97460.72;;;-1.14;81.09
44131;BME280;29792;48.726;9.248;2023-02-28T04:59:55;97462.34;;;-1.13;80.72
44131;BME280;29792;48.726;9.248;2023-02-28T05:02:20;97465.69;;;-1.12;80.98
44131;BME280;29792;48.726;9.248;2023-02-28T05:04:46;97461.56;;;-1.13;80.98
44131;BME280;29792;48.726;9.248;2023-02-28T05:07:11;97464.91;;;-1.14;81.18
44131;BME280;29792;48.726;9.248;2023-02-28T05:09:36;97466.56;;;-1.13;81.12
44131;BME280;29792;48.726;9.248;2023-02-28T05:12:02;97458.16;;;-1.12;81.48
44131;BME280;29792;48.726;9.248;2023-02-28T05:14:27;97461.56;;;-1.13;81.85
44131;BME280;29792;48.726;9.248;2023-02-28T05:16:52;97455.63;;;-1.12;81.14
44131;BME280;29792;48.726;9.248;2023-02-28T05:19:17;97461.47;;;-1.12;81.20
44131;BME280;29792;48.726;9.248;2023-02-28T05:21:51;97464.81;;;-1.11;82.14
44131;BME280;29792;48.726;9.248;2023-02-28T05:24:17;97464.78;;;-1.10;81.86
44131;BME280;29792;48.726;9.248;2023-02-28T05:26:48;97467.31;;;-1.10;82.01
44131;BME280;29792;48.726;9.248;2023-02-28T05:29:13;97470.59;;;-1.08;81.64
44131;BME280;29792;48.726;9.248;2023-02-28T05:31:38;97470.50;;;-1.05;81.74
44131;BME280;29792;48.726;9.248;2023-02-28T05:34:04;97469.72;;;-1.05;81.86
44131;BME280;29792;48.726;9.248;2023-02-28T05:36:30;97473.84;;;-1.04;81.84
44131;BME280;29792;48.726;9.248;2023-02-28T05:38:55;97471.31;;;-1.04;81.92
44131;BME280;29792;48.726;9.248;2023-02-28T05:41:20;97466.31;;;-1.04;81.32
44131;BME280;29792;48.726;9.248;2023-02-28T05:43:47;97472.94;;;-1.02;82.39
44131;BME280;29792;48.726;9.248;2023-02-28T05:46:13;97470.47;;;-1.03;82.31
44131;BME280;29792;48.726;9.248;2023-02-28T05:48:39;97472.94;;;-1.02;81.57
44131;BME280;29792;48.726;9.248;2023-02-28T05:51:06;97489.59;;;-0.98;82.32
44131;BME280;29792;48.726;9.248;2023-02-28T05:53:31;97481.13;;;-0.95;81.84
44131;BME280;29792;48.726;9.248;2023-02-28T05:55:57;97480.31;;;-0.96;81.87
44131;BME280;29792;48.726;9.248;2023-02-28T05:58:23;97480.25;;;-0.93;82.07
44131;BME280;29792;48.726;9.248;2023-02-28T06:00:50;97477.72;;;-0.93;82.25
44131;BME280;29792;48.726;9.248;2023-02-28T06:03:16;97480.28;;;-0.94;81.62
44131;BME280;29792;48.726;9.248;2023-02-28T06:05:41;97481.13;;;-0.95;82.25
44131;BME280;29792;48.726;9.248;2023-02-28T06:08:06;97481.09;;;-0.94;82.14
44131;BME280;29792;48.726;9.248;2023-02-28T06:10:33;97482.75;;;-0.93;82.29
44131;BME280;29792;48.726;9.248;2023-02-28T06:13:02;97484.28;;;-0.87;82.43
44131;BME280;29792;48.726;9.248;2023-02-28T06:15:28;97486.72;;;-0.84;82.52
44131;BME280;29792;48.726;9.248;2023-02-28T06:17:54;97485.84;;;-0.83;82.35
44131;BME280;29792;48.726;9.248;2023-02-28T06:20:22;97485.75;;;-0.80;82.13
44131;BME280;29792;48.726;9.248;2023-02-28T06:22:47;97480.00;;;-0.84;81.61
44131;BME280;29792;48.726;9.248;2023-02-28T06:25:13;97486.75;;;-0.86;81.81
44131;BME280;29792;48.726;9.248;2023-02-28T06:27:38;97489.25;;;-0.86;82.10
44131;BME280;29792;48.726;9.248;2023-02-28T06:30:04;97490.88;;;-0.83;81.96
44131;BME280;29792;48.726;9.248;2023-02-28T06:32:29;97500.94;;;-0.83;81.71
44131;BME280;29792;48.726;9.248;2023-02-28T06:34:54;97505.13;;;-0.84;81.50
44131;BME280;29792;48.726;9.248;2023-02-28T06:37:20;97504.25;;;-0.81;80.99
44131;BME280;29792;48.726;9.248;2023-02-28T06:39:45;97513.38;;;-0.79;81.75
44131;BME280;29792;48.726;9.248;2023-02-28T06:42:10;97515.03;;;-0.78;81.38
44131;BME280;29792;48.726;9.248;2023-02-28T06:44:36;97514.16;;;-0.77;81.11
44131;BME280;29792;48.726;9.248;2023-02-28T06:47:02;97516.66;;;-0.75;81.11
44131;BME280;29792;48.726;9.248;2023-02-28T06:49:32;97517.44;;;-0.73;81.33
44131;BME280;29792;48.726;9.248;2023-02-28T06:51:58;97508.16;;;-0.72;81.18
44131;BME280;29792;48.726;9.248;2023-02-28T06:54:23;97512.31;;;-0.70;81.40
44131;BME280;29792;48.726;9.248;2023-02-28T06:56:49;97514.78;;;-0.68;80.62
44131;BME280;29792;48.726;9.248;2023-02-28T06:59:14;97518.09;;;-0.66;80.00
44131;BME280;29792;48.726;9.248;2023-02-28T07:01:40;97510.53;;;-0.66;80.34
44131;BME280;29792;48.726;9.248;2023-02-28T07:04:06;97517.97;;;-0.63;80.71
44131;BME280;29792;48.726;9.248;2023-02-28T07:06:32;97522.16;;;-0.62;80.06
44131;BME280;29792;48.726;9.248;2023-02-28T07:08:57;97525.41;;;-0.59;80.65
44131;BME280;29792;48.726;9.248;2023-02-28T07:11:25;97522.94;;;-0.60;80.33
44131;BME280;29792;48.726;9.248;2023-02-28T07:13:52;97529.63;;;-0.59;80.09
44131;BME280;29792;48.726;9.248;2023-02-28T07:16:17;97531.28;;;-0.58;80.28
44131;BME280;29792;48.726;9.248;2023-02-28T07:18:43;97528.78;;;-0.60;79.79
44131;BME280;29792;48.726;9.248;2023-02-28T07:21:10;97530.50;;;-0.60;79.93
44131;BME280;29792;48.726;9.248;2023-02-28T07:23:36;97529.53;;;-0.56;80.13
44131;BME280;29792;48.726;9.248;2023-02-28T07:26:03;97528.63;;;-0.54;79.43
44131;BME280;29792;48.726;9.248;2023-02-28T07:28:28;97535.22;;;-0.50;79.74
44131;BME280;29792;48.726;9.248;2023-02-28T07:30:54;97525.84;;;-0.45;79.79
44131;BME280;29792;48.726;9.248;2023-02-28T07:33:19;97537.59;;;-0.45;79.48
44131;BME280;29792;48.726;9.248;2023-02-28T07:35:44;97534.22;;;-0.44;79.41
44131;BME280;29792;48.726;9.248;2023-02-28T07:38:10;97532.47;;;-0.41;79.02
44131;BME280;29792;48.726;9.248;2023-02-28T07:40:35;97537.44;;;-0.39;79.22
44131;BME280;29792;48.726;9.248;2023-02-28T07:43:02;97528.16;;;-0.37;78.43
44131;BME280;29792;48.726;9.248;2023-02-28T07:45:28;97533.97;;;-0.35;78.35
44131;BME280;29792;48.726;9.248;2023-02-28T07:47:54;97544.81;;;-0.33;78.41
44131;BME280;29792;48.726;9.248;2023-02-28T07:50:20;97536.38;;;-0.32;79.02
44131;BME280;29792;48.726;9.248;2023-02-28T07:52:46;97532.16;;;-0.31;78.72
44131;BME280;29792;48.726;9.248;2023-02-28T07:55:11;97537.13;;;-0.28;78.23
44131;BME280;29792;48.726;9.248;2023-02-28T07:57:37;97540.47;;;-0.28;78.31
44131;BME280;29792;48.726;9.248;2023-02-28T08:00:04;97541.16;;;-0.23;78.27
44131;BME280;29792;48.726;9.248;2023-02-28T08:02:29;97531.78;;;-0.18;78.13
44131;BME280;29792;48.726;9.248;2023-02-28T08:04:55;97541.69;;;-0.12;78.04
44131;BME280;29792;48.726;9.248;2023-02-28T08:07:20;97537.47;;;-0.11;78.04
44131;BME280;29792;48.726;9.248;2023-02-28T08:09:46;97549.19;;;-0.10;77.75
44131;BME280;29792;48.726;9.248;2023-02-28T08:12:11;97547.53;;;-0.11;77.97
44131;BME280;29792;48.726;9.248;2023-02-28T08:14:37;97549.91;;;-0.07;77.85
44131;BME280;29792;48.726;9.248;2023-02-28T08:17:03;97557.38;;;-0.04;77.93
44131;BME280;29792;48.726;9.248;2023-02-28T08:19:29;97548.09;;;-0.02;77.66
44131;BME280;29792;48.726;9.248;2023-02-28T08:21:55;97547.13;;;0.03;77.17
44131;BME280;29792;48.726;9.248;2023-02-28T08:24:20;97551.25;;;0.05;77.13
44131;BME280;29792;48.726;9.248;2023-02-28T08:26:45;97546.84;;;0.12;77.51
44131;BME280;29792;48.726;9.248;2023-02-28T08:29:11;97549.25;;;0.16;77.29
44131;BME280;29792;48.726;9.248;2023-02-28T08:31:36;97544.06;;;0.21;77.33
44131;BME280;29792;48.726;9.248;2023-02-28T08:34:13;97550.56;;;0.28;76.90
44131;BME280;29792;48.726;9.248;2023-02-28T08:36:38;97544.56;;;0.32;76.64
44131;BME280;29792;48.726;9.248;2023-02-28T08:39:04;97550.38;;;0.34;76.68
44131;BME280;29792;48.726;9.248;2023-02-28T08:41:32;97553.66;;;0.36;76.42
44131;BME280;29792;48.726;9.248;2023-02-28T08:43:58;97550.38;;;0.34;76.23
44131;BME280;29792;48.726;9.248;2023-02-28T08:46:23;97552.00;;;0.35;76.03
44131;BME280;29792;48.726;9.248;2023-02-28T08:48:53;97556.19;;;0.36;76.20
44131;BME280;29792;48.726;9.248;2023-02-28T08:51:20;97545.97;;;0.41;75.79
44131;BME280;29792;48.726;9.248;2023-02-28T08:53:53;97555.88;;;0.47;75.49
44131;BME280;29792;48.726;9.248;2023-02-28T08:56:19;97555.75;;;0.50;75.70
44131;BME280;29792;48.726;9.248;2023-02-28T08:58:46;97555.72;;;0.51;75.09
44131;BME280;29792;48.726;9.248;2023-02-28T09:01:14;97555.81;;;0.48;75.16
44131;BME280;29792;48.726;9.248;2023-02-28T09:03:40;97552.31;;;0.52;74.87
44131;BME280;29792;48.726;9.248;2023-02-28T09:06:07;97556.28;;;0.59;74.84
44131;BME280;29792;48.726;9.248;2023-02-28T09:08:32;97562.97;;;0.60;74.59
44131;BME280;29792;48.726;9.248;2023-02-28T09:10:58;97566.38;;;0.59;74.64
44131;BME280;29792;48.726;9.248;2023-02-28T09:13:24;97566.38;;;0.59;74.35
44131;BME280;29792;48.726;9.248;2023-02-28T09:15:50;97564.59;;;0.63;74.37
44131;BME280;29792;48.726;9.248;2023-02-28T09:18:16;97560.34;;;0.65;74.54
44131;BME280;29792;48.726;9.248;2023-02-28T09:20:41;97574.38;;;0.72;74.14
44131;BME280;29792;48.726;9.248;2023-02-28T09:23:08;97573.44;;;0.74;73.66
44131;BME280;29792;48.726;9.248;2023-02-28T09:25:34;97570.88;;;0.76;73.71
44131;BME280;29792;48.726;9.248;2023-02-28T09:27:59;97573.28;;;0.81;73.43
44131;BME280;29792;48.726;9.248;2023-02-28T09:30:25;97572.38;;;0.82;72.91
44131;BME280;29792;48.726;9.248;2023-02-28T09:32:50;97578.97;;;0.86;73.11
44131;BME280;29792;48.726;9.248;2023-02-28T09:35:21;97581.28;;;0.92;73.17
44131;BME280;29792;48.726;9.248;2023-02-28T09:37:50;97577.59;;;1.02;73.29
44131;BME280;29792;48.726;9.248;2023-02-28T09:40:17;97573.94;;;1.10;73.36
44131;BME280;29792;48.726;9.248;2023-02-28T09:42:46;97583.69;;;1.21;72.53
44131;BME280;29792;48.726;9.248;2023-02-28T09:45:31;97584.25;;;1.29;72.33
44131;BME280;29792;48.726;9.248;2023-02-28T09:48:13;97578.13;;;1.36;71.66
44131;BME280;29792;48.726;9.248;2023-02-28T09:50:42;97581.34;;;1.40;71.90
44131;BME280;29792;48.726;9.248;2023-02-28T09:53:19;97583.50;;;1.50;71.61
44131;BME280;29792;48.726;9.248;2023-02-28T09:55:50;97589.84;;;1.62;71.08
44131;BME280;29792;48.726;9.248;2023-02-28T09:58:28;97589.44;;;1.73;70.50
44131;BME280;29792;48.726;9.248;2023-02-28T10:01:12;97590.78;;;1.83;70.19
44131;BME280;29792;48.726;9.248;2023-02-28T10:03:51;97582.91;;;1.90;69.64
44131;BME280;29792;48.726;9.248;2023-02-28T10:06:22;97586.75;;;2.01;69.33
44131;BME280;29792;48.726;9.248;2023-02-28T10:09:01;97589.81;;;2.09;69.38
44131;BME280;29792;48.726;9.248;2023-02-28T10:11:27;97590.22;;;2.20;69.41
44131;BME280;29792;48.726;9.248;2023-02-28T10:14:03;97592.47;;;2.27;68.76
44131;BME280;29792;48.726;9.248;2023-02-28T10:19:44;97606.53;;;2.35;67.58
44131;BME280;29792;48.726;9.248;2023-02-28T10:22:16;97606.94;;;2.46;67.39
44131;BME280;29792;48.726;9.248;2023-02-28T10:24:47;97608.34;;;2.53;67.10
44131;BME280;29792;48.726;9.248;2023-02-28T10:27:24;97606.00;;;2.70;67.60
44131;BME280;29792;48.726;9.248;2023-02-28T10:29:53;97608.84;;;3.04;67.51
44131;BME280;29792;48.726;9.248;2023-02-28T10:32:23;97607.56;;;3.35;66.04
44131;BME280;29792;48.726;9.248;2023-02-28T10:34:57;97611.44;;;3.43;65.23
44131;BME280;29792;48.726;9.248;2023-02-28T10:37:24;97601.47;;;3.59;63.92
44131;BME280;29792;48.726;9.248;2023-02-28T10:39:49;97594.28;;;3.89;64.11
44131;BME280;29792;48.726;9.248;2023-02-28T10:42:26;97602.47;;;4.32;63.14
44131;BME280;29792;48.726;9.248;2023-02-28T10:45:21;97596.09;;;4.95;62.01
44131;BME280;29792;48.726;9.248;2023-02-28T11:01:15;97587.28;;;6.81;55.31
44131;BME280;29792;48.726;9.248;2023-02-28T11:03:40;97591.97;;;7.03;54.51
44131;BME280;29792;48.726;9.248;2023-02-28T11:06:10;97588.16;;;7.82;56.11
44131;BME280;29792;48.726;9.248;2023-02-28T11:08:51;97585.84;;;8.88;53.81
44131;BME280;29792;48.726;9.248;2023-02-28T11:11:17;97587.56;;;9.52;51.19
44131;BME280;29792;48.726;9.248;2023-02-28T11:13:45;97590.41;;;10.48;51.24
44131;BME280;29792;48.726;9.248;2023-02-28T11:16:13;97583.63;;;11.87;49.28
44131;BME280;29792;48.726;9.248;2023-02-28T11:18:47;97579.41;;;13.47;45.53
44131;BME280;29792;48.726;9.248;2023-02-28T11:21:20;97580.63;;;13.94;42.54
44131;BME280;29792;48.726;9.248;2023-02-28T11:23:47;97575.63;;;14.51;40.11
44131;BME280;29792;48.726;9.248;2023-02-28T11:26:14;97575.69;;;14.71;38.43
44131;BME280;29792;48.726;9.248;2023-02-28T11:28:41;97581.69;;;13.61;37.75
44131;BME280;29792;48.726;9.248;2023-02-28T11:33:53;97592.03;;;11.31;39.57
44131;BME280;29792;48.726;9.248;2023-02-28T11:36:26;97587.19;;;10.33;40.44
44131;BME280;29792;48.726;9.248;2023-02-28T11:38:58;97582.47;;;9.40;41.78
44131;BME280;29792;48.726;9.248;2023-02-28T11:48:07;97580.84;;;8.33;45.38
44131;BME280;29792;48.726;9.248;2023-02-28T11:52:45;97575.63;;;8.20;47.41
44131;BME280;29792;48.726;9.248;2023-02-28T11:55:25;97561.38;;;8.30;47.39
44131;BME280;29792;48.726;9.248;2023-02-28T12:00:50;97559.38;;;8.50;47.78
44131;BME280;29792;48.726;9.248;2023-02-28T12:19:58;97567.13;;;7.64;46.41
44131;BME280;29792;48.726;9.248;2023-02-28T12:25:38;97559.63;;;7.47;47.26
44131;BME280;29792;48.726;9.248;2023-02-28T12:28:14;97561.94;;;7.38;47.56
44131;BME280;29792;48.726;9.248;2023-02-28T12:30:51;97558.66;;;7.36;47.85
44131;BME280;29792;48.726;9.248;2023-02-28T12:33:22;97557.00;;;7.35;48.76
44131;BME280;29792;48.726;9.248;2023-02-28T12:35:54;97555.72;;;7.42;48.82
44131;BME280;29792;48.726;9.248;2023-02-28T12:38:35;97552.09;;;7.46;49.11
44131;BME280;29792;48.726;9.248;2023-02-28T12:41:05;97546.72;;;7.50;49.27
44131;BME280;29792;48.726;9.248;2023-02-28T12:43:38;97549.72;;;7.43;49.39
44131;BME280;29792;48.726;9.248;2023-02-28T12:46:11;97542.91;;;7.43;49.32
44131;BME280;29792;48.726;9.248;2023-02-28T12:48:44;97544.19;;;7.50;49.78
44131;BME280;29792;48.726;9.248;2023-02-28T12:51:12;97536.97;;;7.57;48.63
44131;BME280;29792;48.726;9.248;2023-02-28T12:53:56;97525.97;;;7.56;49.45
44131;BME280;29792;48.726;9.248;2023-02-28T12:56:41;97531.63;;;7.61;49.33
44131;BME280;29792;48.726;9.248;2023-02-28T12:59:25;97535.25;;;7.72;49.45
44131;BME280;29792;48.726;9.248;2023-02-28T13:02:01;97533.03;;;7.80;49.17
44131;BME280;29792;48.726;9.248;2023-02-28T13:09:52;97524.09;;;8.01;49.09
44131;BME280;29792;48.726;9.248;2023-02-28T13:12:18;97522.38;;;8.43;49.82
44131;BME280;29792;48.726;9.248;2023-02-28T13:14:45;97519.44;;;8.88;48.40
44131;BME280;29792;48.726;9.248;2023-02-28T13:17:13;97527.00;;;9.78;49.27
44131;BME280;29792;48.726;9.248;2023-02-28T13:24:56;97503.59;;;14.40;41.09
44131;BME280;29792;48.726;9.248;2023-02-28T13:27:33;97510.41;;;15.55;37.80
44131;BME280;29792;48.726;9.248;2023-02-28T13:30:00;97502.00;;;16.08;35.41
44131;BME280;29792;48.726;9.248;2023-02-28T13:32:34;97502.03;;;16.44;35.46
44131;BME280;29792;48.726;9.248;2023-02-28T13:37:31;97508.25;;;16.51;33.82
44131;BME280;29792;48.726;9.248;2023-02-28T13:40:23;97505.47;;;17.23;33.31
44131;BME280;29792;48.726;9.248;2023-02-28T13:42:50;97509.66;;;17.76;31.97
44131;BME280;29792;48.726;9.248;2023-02-28T13:45:23;97504.19;;;17.01;30.44
44131;BME280;29792;48.726;9.248;2023-02-28T13:48:03;97506.75;;;15.85;31.24
44131;BME280;29792;48.726;9.248;2023-02-28T13:58:46;97504.53;;;14.97;34.58
44131;BME280;29792;48.726;9.248;2023-02-28T14:01:24;97514.63;;;15.56;33.34
44131;BME280;29792;48.726;9.248;2023-02-28T14:06:37;97508.13;;;15.33;33.48
44131;BME280;29792;48.726;9.248;2023-02-28T14:09:21;97517.44;;;15.07;32.97
44131;BME280;29792;48.726;9.248;2023-02-28T14:11:48;97508.22;;;14.56;33.54
44131;BME280;29792;48.726;9.248;2023-02-28T14:17:08;97500.34;;;13.89;34.55
44131;BME280;29792;48.726;9.248;2023-02-28T14:19:38;97510.03;;;13.35;34.83
44131;BME280;29792;48.726;9.248;2023-02-28T14:22:25;97508.03;;;12.66;35.63
44131;BME280;29792;48.726;9.248;2023-02-28T14:28:03;97515.22;;;11.41;37.87
44131;BME280;29792;48.726;9.248;2023-02-28T14:30:52;97521.44;;;11.03;39.24
44131;BME280;29792;48.726;9.248;2023-02-28T14:36:30;97518.59;;;10.49;39.95
44131;BME280;29792;48.726;9.248;2023-02-28T14:39:00;97520.66;;;10.20;40.14
44131;BME280;29792;48.726;9.248;2023-02-28T14:41:35;97520.63;;;9.97;40.95
44131;BME280;29792;48.726;9.248;2023-02-28T14:44:13;97518.25;;;9.93;41.76
44131;BME280;29792;48.726;9.248;2023-02-28T14:46:40;97518.16;;;9.95;41.24
44131;BME280;29792;48.726;9.248;2023-02-28T14:49:15;97517.16;;;9.85;41.18
44131;BME280;29792;48.726;9.248;2023-02-28T14:51:41;97518.50;;;9.78;41.72
44131;BME280;29792;48.726;9.248;2023-02-28T14:54:12;97520.03;;;9.68;41.19
44131;BME280;29792;48.726;9.248;2023-02-28T14:56:39;97518.44;;;9.54;41.94
44131;BME280;29792;48.726;9.248;2023-02-28T14:59:17;97515.16;;;9.52;41.72